Terminal Aerodrome Forecast
Issued by NWS Wilmington, NC

Home | Current Version | Previous Version | Text Only | Print | Product List | Glossary On
Versions: 1 2 3 4 5 6 7 8 9 10 11 12 13 14 15 16
981
FTUS42 KILM 111725
TAFLBT
TAF
KLBT 111725Z 1118/1218 29008KT P6SM SKC
     FM112300 26002KT P6SM SCT250
     FM120600 05005KT P6SM OVC050
     FM121400 06008KT 5SM -SNRA SCT010 OVC015
     FM121500 03007KT 4SM -FZRA BR OVC012=

USA.gov is the U.S. government's official web portal to all federal, state and local government web resources and services.